createdAt,value
2022-09-09T00:00:00.173Z,0.00
2022-09-09T00:10:00.148Z,0.00
2022-09-09T00:20:00.180Z,0.00
2022-09-09T00:30:00.197Z,0.00
2022-09-09T00:40:00.306Z,0.00
2022-09-09T00:50:01.328Z,0.00
2022-09-09T01:00:00.228Z,0.00
2022-09-09T01:10:00.140Z,0.00
2022-09-09T01:20:00.133Z,0.00
2022-09-09T01:30:00.174Z,0.00
2022-09-09T01:40:00.328Z,0.00
2022-09-09T01:50:00.165Z,0.00
2022-09-09T02:00:00.193Z,0.00
2022-09-09T02:10:00.201Z,0.00
2022-09-09T02:20:00.140Z,0.00
2022-09-09T02:30:00.183Z,0.00
2022-09-09T02:40:00.232Z,0.00
2022-09-09T02:50:00.127Z,0.00
2022-09-09T03:00:00.168Z,0.00
2022-09-09T03:10:00.145Z,0.00
2022-09-09T03:20:00.193Z,0.00
2022-09-09T03:30:00.148Z,0.00
2022-09-09T03:40:00.289Z,0.00
2022-09-09T03:50:00.099Z,0.00
2022-09-09T04:00:00.163Z,0.57
2022-09-09T04:10:00.118Z,4.30
2022-09-09T04:20:00.151Z,11.67
2022-09-09T04:30:00.180Z,55.00
2022-09-09T04:40:00.280Z,130.00
2022-09-09T04:50:00.131Z,231.67
2022-09-09T05:00:01.011Z,375.00
2022-09-09T05:10:00.122Z,488.33
2022-09-09T05:20:00.165Z,525.00
2022-09-09T05:30:00.137Z,538.33
2022-09-09T05:40:00.244Z,525.00
2022-09-09T05:50:00.107Z,586.67
2022-09-09T06:00:00.182Z,671.67
2022-09-09T06:10:00.127Z,790.00
2022-09-09T06:20:00.158Z,753.33
2022-09-09T06:30:00.133Z,816.67
2022-09-09T06:40:00.274Z,860.00
2022-09-09T06:50:00.163Z,978.33
2022-09-09T07:00:00.171Z,1095.00
2022-09-09T07:10:00.113Z,1111.67
2022-09-09T07:20:00.151Z,1333.33
2022-09-09T07:30:00.205Z,1806.67
2022-09-09T07:40:00.287Z,2196.67
2022-09-09T07:50:00.120Z,2038.33
2022-09-09T08:00:00.170Z,1693.33
2022-09-09T08:10:00.163Z,1663.33
2022-09-09T08:20:00.179Z,1703.33
2022-09-09T08:30:00.120Z,2056.67
2022-09-09T08:40:00.262Z,2185.00
2022-09-09T08:50:00.146Z,2868.33
2022-09-09T09:00:00.155Z,3405.00
2022-09-09T09:10:00.169Z,4010.00
2022-09-09T09:20:00.168Z,3518.33
2022-09-09T09:40:03.367Z,1701.67
2022-09-09T09:50:00.153Z,1636.67
2022-09-09T10:00:00.133Z,2251.67
2022-09-09T10:10:01.273Z,3511.67
2022-09-09T10:20:00.126Z,3100.00
2022-09-09T10:30:00.141Z,4035.00
2022-09-09T10:40:00.278Z,6186.67
2022-09-09T10:50:00.151Z,4143.33
2022-09-09T11:00:00.176Z,31086.67
2022-09-09T11:10:00.122Z,34116.67
2022-09-09T11:20:00.189Z,2906.67
2022-09-09T11:30:00.189Z,2175.00
2022-09-09T11:40:00.295Z,8751.67
2022-09-09T11:50:00.137Z,2788.33
2022-09-09T12:00:00.191Z,3033.33
2022-09-09T12:10:00.138Z,32763.33
2022-09-09T12:20:00.165Z,32503.33
2022-09-09T12:30:00.135Z,3626.67
2022-09-09T12:40:00.274Z,4130.00
2022-09-09T12:50:00.132Z,7049.58
2022-09-09T13:00:00.176Z,3515.00
2022-09-09T13:10:00.142Z,2993.33
2022-09-09T13:20:00.190Z,2515.00
2022-09-09T13:30:00.165Z,7571.67
2022-09-09T13:40:00.369Z,12501.67
2022-09-09T13:50:00.185Z,9008.33
2022-09-09T14:00:07.430Z,25338.33
2022-09-09T14:10:00.105Z,29990.00
2022-09-09T14:20:00.145Z,29866.67
2022-09-09T14:30:01.310Z,29986.67
2022-09-09T14:40:00.288Z,5961.67
2022-09-09T14:50:00.150Z,2208.33
2022-09-09T15:00:00.148Z,1726.67
2022-09-09T15:10:00.160Z,5376.67
2022-09-09T15:20:00.176Z,13088.33
2022-09-09T15:30:01.692Z,8330.00
2022-09-09T15:40:00.196Z,6163.33
2022-09-09T15:50:00.152Z,15273.75
2022-09-09T16:00:00.176Z,17977.92
2022-09-09T16:10:00.118Z,3131.67
2022-09-09T16:20:00.163Z,1495.00
2022-09-09T16:30:00.142Z,441.67
2022-09-09T16:40:00.314Z,460.00
2022-09-09T16:50:00.143Z,335.00
2022-09-09T17:00:00.174Z,303.33
2022-09-09T17:10:00.126Z,170.00
2022-09-09T17:20:00.178Z,110.00
2022-09-09T17:30:00.137Z,88.33
2022-09-09T17:40:00.302Z,41.67
2022-09-09T17:50:00.148Z,11.67
2022-09-09T18:00:00.167Z,5.66
2022-09-09T18:10:00.146Z,1.02
2022-09-09T18:20:00.169Z,0.11
2022-09-09T18:30:00.147Z,0.00
2022-09-09T18:40:00.287Z,0.00
2022-09-09T18:50:00.167Z,0.00
2022-09-09T19:00:00.193Z,0.00
2022-09-09T19:10:00.120Z,0.00
2022-09-09T19:20:00.212Z,0.00
2022-09-09T19:30:00.152Z,0.00
2022-09-09T19:40:00.244Z,0.00
2022-09-09T19:50:00.177Z,0.00
2022-09-09T20:00:00.136Z,0.11
2022-09-09T20:10:00.136Z,0.00
2022-09-09T20:20:00.185Z,0.00
2022-09-09T20:30:00.152Z,1.25
2022-09-09T20:40:00.354Z,0.00
2022-09-09T20:50:00.165Z,0.00
2022-09-09T21:00:00.201Z,0.00
2022-09-09T21:10:00.129Z,0.00
2022-09-09T21:20:00.146Z,0.00
2022-09-09T21:30:00.143Z,0.00
2022-09-09T21:40:00.216Z,0.00
2022-09-09T21:50:00.144Z,0.00
2022-09-09T22:00:00.165Z,0.00
2022-09-09T22:10:00.168Z,0.00
2022-09-09T22:20:00.166Z,0.11
2022-09-09T22:30:00.112Z,0.11
2022-09-09T22:40:00.249Z,0.00
2022-09-09T22:50:00.123Z,0.00
2022-09-09T23:00:02.883Z,0.00
2022-09-09T23:10:00.159Z,0.00
2022-09-09T23:20:00.152Z,0.00
2022-09-09T23:30:00.144Z,0.00
2022-09-09T23:40:00.246Z,0.00
2022-09-09T23:50:00.168Z,0.00
